createdAt,value
2022-10-09T00:02:02.266Z,20.1
2022-10-09T00:04:19.326Z,20.2
2022-10-09T00:06:36.281Z,20
2022-10-09T00:08:53.396Z,20
2022-10-09T00:11:10.383Z,20
2022-10-09T00:13:27.412Z,20.1
2022-10-09T00:15:44.357Z,19.9
2022-10-09T00:18:01.413Z,20.1
2022-10-09T00:20:18.423Z,19.9
2022-10-09T00:22:35.431Z,20
2022-10-09T00:24:53.442Z,19.9
2022-10-09T00:27:09.411Z,20.1
2022-10-09T00:29:25.316Z,20.2
2022-10-09T00:31:41.982Z,20.3
2022-10-09T00:33:59.043Z,19.8
2022-10-09T00:36:16.034Z,19.9
2022-10-09T00:38:31.969Z,19.9
2022-10-09T00:40:48.606Z,20.4
2022-10-09T00:43:04.788Z,19.9
2022-10-09T00:45:21.471Z,20.4
2022-10-09T00:47:37.818Z,20.1
2022-10-09T00:49:54.376Z,20.4
2022-10-09T00:52:11.240Z,20
2022-10-09T00:54:28.539Z,19.9
2022-10-09T00:56:45.433Z,19.9
2022-10-09T00:59:02.671Z,19.7
2022-10-09T01:01:19.688Z,19.8
2022-10-09T01:03:35.940Z,19.7
2022-10-09T01:05:52.487Z,20.3
2022-10-09T01:08:09.468Z,19.8
2022-10-09T01:10:26.575Z,19.6
2022-10-09T01:12:43.336Z,19.9
2022-10-09T01:15:00.669Z,19.8
2022-10-09T01:17:17.654Z,19.8
2022-10-09T01:19:34.887Z,19.6
2022-10-09T01:21:51.894Z,19.8
2022-10-09T01:24:08.117Z,19.9
2022-10-09T01:26:24.268Z,20.1
2022-10-09T01:28:41.115Z,20.3
2022-10-09T01:30:57.323Z,19.9
2022-10-09T01:33:14.293Z,20.3
2022-10-09T01:35:30.974Z,19.9
2022-10-09T01:37:47.817Z,19.8
2022-10-09T01:40:04.716Z,19.7
2022-10-09T01:42:21.615Z,19.7
2022-10-09T01:44:38.808Z,19.9
2022-10-09T01:46:55.756Z,19.6
2022-10-09T01:49:13.023Z,19.6
2022-10-09T01:51:29.935Z,19.7
2022-10-09T01:53:47.350Z,19.8
2022-10-09T01:56:03.304Z,19.8
2022-10-09T01:58:19.742Z,20.3
2022-10-09T02:00:36.674Z,19.8
2022-10-09T02:02:53.108Z,19.4
2022-10-09T02:05:09.610Z,20.2
2022-10-09T02:07:26.336Z,19.9
2022-10-09T02:09:43.372Z,19.6
2022-10-09T02:12:00.197Z,19.7
2022-10-09T02:14:17.199Z,19.4
2022-10-09T02:16:37.148Z,19.6
2022-10-09T02:18:50.895Z,19.5
2022-10-09T02:21:06.993Z,19.3
2022-10-09T02:23:23.549Z,20.2
2022-10-09T02:25:41.016Z,19.5
2022-10-09T02:27:57.162Z,19.6
2022-10-09T02:30:14.281Z,19.4
2022-10-09T02:32:30.914Z,19.5
2022-10-09T02:34:47.219Z,19.5
2022-10-09T02:37:03.581Z,20
2022-10-09T02:39:20.371Z,20.1
2022-10-09T02:41:37.210Z,19.7
2022-10-09T02:43:53.723Z,20.1
2022-10-09T02:46:10.723Z,19.6
2022-10-09T02:48:27.571Z,19.6
2022-10-09T02:50:44.523Z,19.7
2022-10-09T02:53:01.304Z,19.7
2022-10-09T02:55:18.350Z,19.6
2022-10-09T02:57:35.340Z,19.6
2022-10-09T02:59:52.166Z,19.3
2022-10-09T03:02:09.013Z,19.6
2022-10-09T03:04:26.095Z,19.4
2022-10-09T03:06:42.831Z,19.5
2022-10-09T03:08:58.919Z,19.6
2022-10-09T03:11:15.682Z,20.1
2022-10-09T03:13:32.260Z,19.8
2022-10-09T03:15:49.281Z,19.6
2022-10-09T03:18:05.990Z,19.6
2022-10-09T03:20:23.256Z,19.7
2022-10-09T03:22:39.779Z,19.8
2022-10-09T03:24:56.674Z,19.6
2022-10-09T03:27:13.968Z,19.4
2022-10-09T03:29:30.242Z,19.6
2022-10-09T03:32:04.440Z,19.6
2022-10-09T03:34:21.206Z,19.4
2022-10-09T03:36:37.933Z,19.5
2022-10-09T03:38:54.054Z,19.3
2022-10-09T03:41:10.651Z,19.9
2022-10-09T03:43:27.231Z,19.6
2022-10-09T03:45:43.978Z,19.6
2022-10-09T03:48:00.612Z,19.6
2022-10-09T03:50:17.290Z,19.5
2022-10-09T03:52:34.138Z,19.6
2022-10-09T03:54:50.745Z,19.8
2022-10-09T03:57:07.472Z,19.4
2022-10-09T03:59:24.210Z,19.6
2022-10-09T04:01:40.913Z,19.4
2022-10-09T04:03:56.920Z,19.5
2022-10-09T04:06:13.592Z,19.8
2022-10-09T04:08:30.174Z,19.5
2022-10-09T04:10:46.694Z,19.7
2022-10-09T04:13:03.373Z,19.4
2022-10-09T04:15:20.177Z,19.9
2022-10-09T04:17:36.868Z,19.4
2022-10-09T04:19:53.388Z,19.6
2022-10-09T04:22:10.300Z,19.6
2022-10-09T04:24:26.906Z,19.5
2022-10-09T04:26:43.799Z,19.6
2022-10-09T04:29:00.465Z,19.6
2022-10-09T04:31:17.449Z,19.6
2022-10-09T04:33:33.888Z,19.5
2022-10-09T04:35:51.003Z,19.5
2022-10-09T04:38:07.666Z,19.4
2022-10-09T04:40:24.054Z,19.6
2022-10-09T04:42:40.961Z,19.4
2022-10-09T04:44:57.652Z,19.5
2022-10-09T04:47:14.471Z,19.4
2022-10-09T04:49:31.052Z,19.4
2022-10-09T04:51:47.848Z,19.6
2022-10-09T04:54:03.988Z,19.6
2022-10-09T04:56:20.824Z,19.8
2022-10-09T04:58:37.460Z,19.4
2022-10-09T05:00:54.469Z,19.4
2022-10-09T05:03:10.599Z,19.4
2022-10-09T05:05:27.006Z,19.6
2022-10-09T05:07:43.838Z,19.6
2022-10-09T05:10:00.657Z,19.4
2022-10-09T05:12:17.444Z,19.3
2022-10-09T05:14:34.145Z,19.4
2022-10-09T05:17:13.423Z,19.7
2022-10-09T05:19:19.733Z,19.5
2022-10-09T05:21:36.153Z,19.8
2022-10-09T05:23:52.680Z,19.8
2022-10-09T05:26:09.571Z,19.9
2022-10-09T05:28:26.246Z,19.4
2022-10-09T05:30:42.476Z,19.4
2022-10-09T05:32:59.111Z,19.9
2022-10-09T05:35:16.538Z,19.3
2022-10-09T05:37:32.506Z,19.5
2022-10-09T05:39:49.216Z,19.4
2022-10-09T05:42:05.997Z,19.4
2022-10-09T05:44:22.838Z,19.7
2022-10-09T05:46:40.314Z,19.6
2022-10-09T05:48:56.909Z,19.5
2022-10-09T05:51:13.582Z,19.7
2022-10-09T05:53:30.580Z,19.4
2022-10-09T05:55:47.725Z,19.5
2022-10-09T05:58:04.766Z,19.4
2022-10-09T06:00:21.882Z,19.6
2022-10-09T06:02:39.097Z,19.6
2022-10-09T06:04:55.983Z,19.8
2022-10-09T06:07:11.885Z,19.9
2022-10-09T06:09:28.987Z,20.3
2022-10-09T06:11:45.064Z,19.8
2022-10-09T06:14:02.195Z,20.5
2022-10-09T06:16:19.315Z,19.9
2022-10-09T06:18:36.392Z,20.1
2022-10-09T06:20:53.411Z,20.2
2022-10-09T06:23:10.490Z,20.3
2022-10-09T06:25:27.621Z,20.4
2022-10-09T06:27:44.515Z,20.3
2022-10-09T06:30:01.543Z,20.6
2022-10-09T06:32:18.604Z,20.4
2022-10-09T06:34:35.849Z,20.6
2022-10-09T06:36:52.681Z,20.8
2022-10-09T06:39:09.781Z,20.8
2022-10-09T06:41:26.766Z,20.7
2022-10-09T06:43:43.492Z,21
2022-10-09T06:46:00.587Z,21.1
2022-10-09T06:48:17.644Z,20.9
2022-10-09T06:52:51.803Z,21.3
2022-10-09T06:55:08.462Z,21.2
2022-10-09T06:57:25.451Z,21.1
2022-10-09T06:59:42.418Z,21.3
2022-10-09T07:01:59.553Z,21.4
2022-10-09T07:04:16.241Z,21.4
2022-10-09T07:06:33.221Z,21.3
2022-10-09T07:08:49.958Z,21.5
2022-10-09T07:11:06.785Z,21.4
2022-10-09T07:13:23.585Z,21.6
2022-10-09T07:15:40.359Z,21.8
2022-10-09T07:17:57.199Z,21.9
2022-10-09T07:20:13.990Z,21.9
2022-10-09T07:22:30.507Z,22
2022-10-09T07:24:47.270Z,22.3
2022-10-09T07:27:02.527Z,22
2022-10-09T07:29:19.154Z,22.4
2022-10-09T07:31:35.933Z,22.2
2022-10-09T07:33:52.678Z,22.3
2022-10-09T07:36:09.323Z,22.3
2022-10-09T07:38:24.379Z,22.3
2022-10-09T07:40:39.459Z,22.6
2022-10-09T07:42:56.199Z,22.6
2022-10-09T07:45:12.967Z,22.5
2022-10-09T07:47:29.518Z,22.7
2022-10-09T07:49:44.633Z,22.8
2022-10-09T07:52:01.274Z,22.8
2022-10-09T07:54:17.844Z,22.9
2022-10-09T07:56:34.212Z,22.8
2022-10-09T07:58:50.562Z,23
2022-10-09T08:01:07.025Z,23.3
2022-10-09T08:03:23.184Z,23.3
2022-10-09T08:05:39.635Z,23.4
2022-10-09T08:07:55.837Z,23.4
2022-10-09T08:10:12.114Z,23.4
2022-10-09T08:12:28.272Z,23.6
2022-10-09T08:14:43.229Z,23.6
2022-10-09T08:16:59.695Z,23.4
2022-10-09T08:19:15.958Z,23.4
2022-10-09T08:21:32.403Z,23.4
2022-10-09T08:23:48.706Z,23.4
2022-10-09T08:26:03.648Z,23.4
2022-10-09T08:28:19.774Z,23.8
2022-10-09T08:30:34.923Z,23
2022-10-09T08:32:50.653Z,23.8
2022-10-09T08:35:05.533Z,23.7
2022-10-09T08:37:20.950Z,23.8
2022-10-09T08:39:49.244Z,23.6
2022-10-09T08:42:04.695Z,23
2022-10-09T08:44:21.095Z,23.7
2022-10-09T08:46:36.409Z,22.9
2022-10-09T08:48:52.148Z,23.8
2022-10-09T08:51:07.874Z,23.8
2022-10-09T08:53:23.220Z,23.8
2022-10-09T08:55:39.115Z,23.7
2022-10-09T08:57:54.852Z,23.9
2022-10-09T09:00:10.750Z,23.7
2022-10-09T09:02:26.521Z,23.8
2022-10-09T09:04:42.433Z,23.8
2022-10-09T09:06:58.237Z,23.9
2022-10-09T09:09:14.153Z,24
2022-10-09T09:11:29.980Z,23.9
2022-10-09T09:13:45.751Z,23.9
2022-10-09T09:16:01.987Z,24.1
2022-10-09T09:18:17.794Z,24
2022-10-09T09:20:33.734Z,24.1
2022-10-09T09:22:50.073Z,23.9
2022-10-09T09:25:06.468Z,24
2022-10-09T09:27:23.023Z,23.7
2022-10-09T09:29:39.954Z,23.7
2022-10-09T09:31:55.105Z,23.4
2022-10-09T09:34:11.823Z,24.1
2022-10-09T09:36:27.383Z,23.6
2022-10-09T09:39:02.641Z,24.3
2022-10-09T09:41:53.781Z,23.8
2022-10-09T09:44:10.381Z,23.9
2022-10-09T09:46:25.867Z,23.6
2022-10-09T09:48:42.362Z,24.3
2022-10-09T09:51:28.764Z,23.4
2022-10-09T09:53:41.894Z,23.9
2022-10-09T09:55:57.618Z,24
2022-10-09T09:58:29.181Z,24.1
2022-10-09T10:00:45.356Z,24.2
2022-10-09T10:03:01.316Z,24.1
2022-10-09T10:05:17.367Z,23.9
2022-10-09T10:07:33.476Z,23.9
2022-10-09T10:09:49.596Z,24
2022-10-09T10:12:06.301Z,24.1
2022-10-09T10:14:21.876Z,23.8
2022-10-09T10:16:38.006Z,23.9
2022-10-09T10:18:54.073Z,24
2022-10-09T10:21:10.376Z,23.9
2022-10-09T10:23:26.425Z,24.1
2022-10-09T10:25:42.696Z,23.9
2022-10-09T10:27:58.783Z,23.8
2022-10-09T10:30:14.976Z,23.8
2022-10-09T10:32:31.037Z,23.8
2022-10-09T10:34:47.246Z,23.7
2022-10-09T10:37:03.757Z,23.7
2022-10-09T10:39:19.680Z,23.8
2022-10-09T10:41:35.946Z,23.7
2022-10-09T10:43:52.175Z,23.9
2022-10-09T10:46:08.329Z,23.9
2022-10-09T10:48:24.741Z,23.7
2022-10-09T10:50:40.792Z,23.7
2022-10-09T10:52:57.170Z,23.7
2022-10-09T10:55:13.216Z,23.5
2022-10-09T10:57:29.415Z,24
2022-10-09T10:59:45.624Z,23.7
2022-10-09T11:02:01.863Z,23.4
2022-10-09T11:04:18.078Z,23.8
2022-10-09T11:06:34.389Z,23.9
2022-10-09T11:08:50.474Z,23.8
2022-10-09T11:11:06.785Z,23.6
2022-10-09T11:13:31.054Z,23.7
2022-10-09T11:15:47.372Z,23.6
2022-10-09T11:18:03.628Z,23.6
2022-10-09T11:20:19.140Z,24.1
2022-10-09T11:22:36.165Z,23.9
2022-10-09T11:24:52.170Z,23.7
2022-10-09T11:27:08.479Z,23.6
2022-10-09T11:29:24.892Z,23.6
2022-10-09T11:31:41.133Z,23.5
2022-10-09T11:33:57.015Z,23.4
2022-10-09T11:36:13.296Z,23.5
2022-10-09T11:38:29.499Z,23.6
2022-10-09T11:40:45.782Z,23.5
2022-10-09T11:43:01.901Z,23.6
2022-10-09T11:45:18.220Z,23.3
2022-10-09T11:47:34.262Z,23.5
2022-10-09T11:49:50.552Z,23.3
2022-10-09T11:52:06.767Z,23.3
2022-10-09T11:54:23.086Z,23.2
2022-10-09T11:56:39.187Z,23.4
2022-10-09T11:58:55.465Z,23.8
2022-10-09T12:01:12.324Z,23.4
2022-10-09T12:03:27.912Z,23.3
2022-10-09T12:05:53.822Z,23.4
2022-10-09T12:08:11.167Z,23.5
2022-10-09T12:10:26.246Z,23.4
2022-10-09T12:12:42.466Z,23.5
2022-10-09T12:14:58.663Z,23.5
2022-10-09T12:17:14.899Z,23.4
2022-10-09T12:19:31.135Z,23.4
2022-10-09T12:21:47.416Z,23.3
2022-10-09T12:24:19.378Z,23.3
2022-10-09T12:26:35.549Z,23.2
2022-10-09T12:28:51.852Z,23.3
2022-10-09T12:31:08.038Z,23.4
2022-10-09T12:33:24.677Z,23.1
2022-10-09T12:35:40.485Z,23.4
2022-10-09T12:37:56.892Z,23.3
2022-10-09T12:40:13.213Z,23.3
2022-10-09T12:44:45.668Z,23.3
2022-10-09T12:47:01.835Z,23.4
2022-10-09T12:49:18.137Z,23.3
2022-10-09T12:51:34.354Z,23.4
2022-10-09T12:53:50.597Z,23.3
2022-10-09T12:56:06.873Z,23.3
2022-10-09T12:58:23.088Z,23.3
2022-10-09T13:00:39.389Z,23.3
2022-10-09T13:02:55.744Z,23.3
2022-10-09T13:05:11.843Z,23.3
2022-10-09T13:07:28.055Z,23.3
2022-10-09T13:09:44.282Z,23.3
2022-10-09T13:12:00.497Z,23.3
2022-10-09T13:14:16.809Z,23.4
2022-10-09T13:16:33.162Z,23.3
2022-10-09T13:18:49.576Z,23.4
2022-10-09T13:21:05.557Z,23.6
2022-10-09T13:23:21.834Z,23.3
2022-10-09T13:25:38.123Z,23.3
2022-10-09T13:27:54.306Z,23.1
2022-10-09T13:30:10.656Z,23.2
2022-10-09T13:32:26.882Z,23.3
2022-10-09T13:34:43.201Z,23
2022-10-09T13:36:59.716Z,23.3
2022-10-09T13:39:15.926Z,23.4
2022-10-09T13:41:32.471Z,23.4
2022-10-09T13:43:48.674Z,23.3
2022-10-09T13:46:04.971Z,23.3
2022-10-09T13:48:21.455Z,23.3
2022-10-09T13:50:37.735Z,23.4
2022-10-09T13:52:54.336Z,23.1
2022-10-09T13:55:10.558Z,23.3
2022-10-09T13:57:27.060Z,23.3
2022-10-09T13:59:43.357Z,23.3
2022-10-09T14:01:59.952Z,23.1
2022-10-09T14:04:16.489Z,23.3
2022-10-09T14:06:32.461Z,23.3
2022-10-09T14:08:48.994Z,23.1
2022-10-09T14:11:05.190Z,23.1
2022-10-09T14:13:21.765Z,23.3
2022-10-09T14:15:37.991Z,23.2
2022-10-09T14:17:54.409Z,23
2022-10-09T14:20:10.786Z,23.1
2022-10-09T14:22:27.261Z,23.2
2022-10-09T14:24:43.667Z,23
2022-10-09T14:27:00.165Z,23.3
2022-10-09T14:29:16.439Z,23.4
2022-10-09T14:31:32.794Z,22.9
2022-10-09T14:33:49.317Z,23.2
2022-10-09T14:36:05.640Z,23.3
2022-10-09T14:38:28.605Z,23.1
2022-10-09T14:40:44.927Z,23.1
2022-10-09T14:43:01.175Z,23
2022-10-09T14:45:17.499Z,23.3
2022-10-09T14:47:33.860Z,23.2
2022-10-09T14:49:50.393Z,22.9
2022-10-09T14:52:06.575Z,23.1
2022-10-09T14:54:22.675Z,22.9
2022-10-09T14:56:39.099Z,23.1
2022-10-09T14:58:55.498Z,22.8
2022-10-09T15:01:11.837Z,23.1
2022-10-09T15:03:28.294Z,23
2022-10-09T15:05:44.566Z,22.6
2022-10-09T15:08:00.783Z,22.7
2022-10-09T15:10:17.156Z,22.6
2022-10-09T15:12:33.487Z,22.6
2022-10-09T15:14:49.870Z,22.5
2022-10-09T15:17:06.244Z,22.6
2022-10-09T15:19:22.640Z,22.4
2022-10-09T15:21:38.880Z,22.5
2022-10-09T15:23:55.241Z,22.3
2022-10-09T15:26:11.631Z,22.3
2022-10-09T15:28:28.455Z,22.3
2022-10-09T15:30:44.391Z,21.6
2022-10-09T15:33:00.401Z,22.3
2022-10-09T15:35:16.872Z,22.2
2022-10-09T15:37:32.810Z,22.1
2022-10-09T15:39:49.667Z,22
2022-10-09T15:42:06.449Z,21.6
2022-10-09T15:44:23.311Z,21.5
2022-10-09T15:46:39.870Z,21.7
2022-10-09T15:49:08.370Z,21.8
2022-10-09T15:51:25.149Z,21.6
2022-10-09T15:53:41.757Z,21.8
2022-10-09T15:55:58.419Z,21.6
2022-10-09T15:58:15.074Z,21.6
2022-10-09T16:00:31.938Z,21.6
2022-10-09T16:02:49.080Z,21.9
2022-10-09T16:05:04.308Z,21.8
2022-10-09T16:07:21.198Z,22.1
2022-10-09T16:09:38.090Z,22
2022-10-09T16:11:54.944Z,22.1
2022-10-09T16:14:11.929Z,22.3
2022-10-09T16:16:28.788Z,22.1
2022-10-09T16:18:44.383Z,22.4
2022-10-09T16:21:00.450Z,22.1
2022-10-09T16:23:17.235Z,22.4
2022-10-09T16:25:33.120Z,22.1
2022-10-09T16:27:50.024Z,22.4
2022-10-09T16:30:06.129Z,22
2022-10-09T16:32:22.107Z,22.4
2022-10-09T16:34:38.984Z,22.4
2022-10-09T16:36:56.221Z,22.3
2022-10-09T16:39:13.245Z,22.1
2022-10-09T16:41:45.360Z,22.2
2022-10-09T16:44:02.353Z,22.1
2022-10-09T16:46:19.551Z,22.2
2022-10-09T16:48:36.181Z,22.4
2022-10-09T16:50:53.130Z,22.2
2022-10-09T16:53:10.094Z,22.3
2022-10-09T16:55:27.050Z,22.2
2022-10-09T16:57:44.054Z,22.2
2022-10-09T17:00:00.968Z,22.1
2022-10-09T17:02:17.914Z,22.2
2022-10-09T17:04:33.675Z,22.3
2022-10-09T17:06:50.471Z,22.3
2022-10-09T17:09:11.269Z,22
2022-10-09T17:11:24.404Z,21.9
2022-10-09T17:13:41.412Z,22.2
2022-10-09T17:15:58.314Z,22.3
2022-10-09T17:18:15.248Z,22.1
2022-10-09T17:20:32.314Z,21.9
2022-10-09T17:22:49.380Z,21.9
2022-10-09T17:25:04.901Z,22.1
2022-10-09T17:27:21.632Z,22.4
2022-10-09T17:29:38.593Z,21.9
2022-10-09T17:31:55.843Z,21.9
2022-10-09T17:34:12.540Z,22.2
2022-10-09T17:36:29.539Z,22.1
2022-10-09T17:38:46.484Z,22.1
2022-10-09T17:41:03.521Z,22
2022-10-09T17:43:20.465Z,21.6
2022-10-09T17:45:39.201Z,21.9
2022-10-09T17:47:54.399Z,21.8
2022-10-09T17:50:11.365Z,21.9
2022-10-09T17:52:28.344Z,21.9
2022-10-09T17:54:45.338Z,22
2022-10-09T17:57:02.222Z,21.8
2022-10-09T17:59:19.219Z,21.9
2022-10-09T18:01:36.205Z,21.9
2022-10-09T18:03:53.362Z,22
2022-10-09T18:06:10.072Z,22
2022-10-09T18:08:25.764Z,21.9
2022-10-09T18:10:42.576Z,22
2022-10-09T18:12:59.688Z,21.9
2022-10-09T18:15:16.684Z,21.8
2022-10-09T18:17:33.900Z,21.8
2022-10-09T18:19:50.726Z,21.9
2022-10-09T18:22:07.706Z,21.8
2022-10-09T18:24:24.781Z,21.6
2022-10-09T18:26:41.708Z,21.6
2022-10-09T18:28:57.475Z,21.8
2022-10-09T18:31:14.425Z,22
2022-10-09T18:33:31.365Z,21.8
2022-10-09T18:35:47.233Z,21.6
2022-10-09T18:38:04.219Z,21.9
2022-10-09T18:40:20.345Z,21.8
2022-10-09T18:42:37.103Z,22.1
2022-10-09T18:44:54.329Z,21.7
2022-10-09T18:47:11.221Z,21.8
2022-10-09T18:49:28.345Z,21.6
2022-10-09T18:51:45.245Z,21.8
2022-10-09T18:54:02.353Z,21.8
2022-10-09T18:56:19.329Z,21.7
2022-10-09T18:58:36.434Z,21.5
2022-10-09T19:00:53.361Z,21.7
2022-10-09T19:03:10.528Z,21.8
2022-10-09T19:05:27.347Z,21.8
2022-10-09T19:07:44.366Z,21.7
2022-10-09T19:10:00.086Z,21.6
2022-10-09T19:12:16.004Z,21.8
2022-10-09T19:14:32.988Z,21.9
2022-10-09T19:16:50.182Z,21.5
2022-10-09T19:19:07.088Z,21.7
2022-10-09T19:21:24.181Z,21.6
2022-10-09T19:23:41.098Z,21.6
2022-10-09T19:25:58.143Z,21.5
2022-10-09T19:28:15.242Z,21.6
2022-10-09T19:30:32.205Z,21.5
2022-10-09T19:32:48.045Z,21.5
2022-10-09T19:35:04.871Z,21.8
2022-10-09T19:37:22.814Z,21.5
2022-10-09T19:39:38.854Z,21.6
2022-10-09T19:41:54.689Z,21.6
2022-10-09T19:44:10.757Z,21.8
2022-10-09T19:46:27.752Z,21.8
2022-10-09T19:48:45.033Z,21.4
2022-10-09T19:51:01.922Z,21.2
2022-10-09T19:53:18.942Z,21.6
2022-10-09T19:55:36.264Z,21.5
2022-10-09T19:57:52.995Z,21.4
2022-10-09T20:00:09.980Z,21.4
2022-10-09T20:02:27.160Z,21.3
2022-10-09T20:04:43.978Z,21.4
2022-10-09T20:09:16.757Z,21.8
2022-10-09T20:11:32.661Z,21.6
2022-10-09T20:13:51.026Z,21.7
2022-10-09T20:16:05.091Z,21.6
2022-10-09T20:18:22.057Z,21.7
2022-10-09T20:20:39.188Z,21.3
2022-10-09T20:22:56.304Z,21
2022-10-09T20:25:13.420Z,21.3
2022-10-09T20:27:30.361Z,21.3
2022-10-09T20:29:47.463Z,21.3
2022-10-09T20:32:04.447Z,21.3
2022-10-09T20:34:20.636Z,21.3
2022-10-09T20:36:36.398Z,21.6
2022-10-09T20:38:53.364Z,21.6
2022-10-09T20:41:10.703Z,21
2022-10-09T20:43:27.681Z,21.3
2022-10-09T20:45:44.733Z,21.2
2022-10-09T20:48:01.705Z,21.2
2022-10-09T20:50:18.844Z,21
2022-10-09T20:52:35.863Z,21.2
2022-10-09T20:54:52.942Z,21.2
2022-10-09T20:59:26.946Z,21.2
2022-10-09T21:01:44.087Z,21.3
2022-10-09T21:04:01.140Z,21.3
2022-10-09T21:06:17.924Z,21.1
2022-10-09T21:10:52.113Z,21.2
2022-10-09T21:13:09.194Z,21
2022-10-09T21:15:26.274Z,21.2
2022-10-09T21:17:43.055Z,21.1
2022-10-09T21:19:59.266Z,21.1
2022-10-09T21:22:15.979Z,21.4
2022-10-09T21:24:32.154Z,21
2022-10-09T21:26:49.016Z,21.3
2022-10-09T21:29:05.257Z,20.8
2022-10-09T21:31:22.278Z,21.4
2022-10-09T21:33:39.441Z,21
2022-10-09T21:38:29.090Z,21
2022-10-09T21:40:46.018Z,21.2
2022-10-09T21:43:03.079Z,21.1
2022-10-09T21:45:20.299Z,21
2022-10-09T21:47:37.098Z,21.2
2022-10-09T21:49:54.183Z,21.1
2022-10-09T21:52:11.158Z,20.8
2022-10-09T21:54:28.168Z,20.9
2022-10-09T21:56:45.184Z,20.9
2022-10-09T21:59:01.143Z,20.9
2022-10-09T22:01:18.162Z,21.3
2022-10-09T22:03:35.145Z,21
2022-10-09T22:05:51.145Z,20.9
2022-10-09T22:08:08.159Z,21.2
2022-10-09T22:10:25.355Z,20.9
2022-10-09T22:12:42.398Z,20.8
2022-10-09T22:14:59.438Z,20.9
2022-10-09T22:17:16.582Z,20.9
2022-10-09T22:19:33.683Z,20.9
2022-10-09T22:21:50.657Z,20.8
2022-10-09T22:24:07.651Z,20.8
2022-10-09T22:26:24.783Z,20.8
2022-10-09T22:28:41.842Z,20.8
2022-10-09T22:30:58.942Z,20.7
2022-10-09T22:33:15.780Z,21.1
2022-10-09T22:35:32.932Z,20.7
2022-10-09T22:37:49.158Z,20.8
2022-10-09T22:40:05.753Z,21
2022-10-09T22:42:22.867Z,21
2022-10-09T22:44:39.935Z,20.7
2022-10-09T22:46:55.866Z,20.6
2022-10-09T22:49:12.853Z,21.3
2022-10-09T22:51:30.005Z,20.6
2022-10-09T22:53:47.064Z,20.7
2022-10-09T22:56:04.210Z,20.7
2022-10-09T22:58:21.219Z,20.8
2022-10-09T23:00:37.139Z,20.8
2022-10-09T23:02:53.342Z,21.1
2022-10-09T23:05:09.568Z,21.1
2022-10-09T23:07:26.609Z,21
2022-10-09T23:09:43.804Z,20.4
2022-10-09T23:12:00.973Z,20.6
2022-10-09T23:14:18.148Z,20.8
2022-10-09T23:16:35.361Z,20.6
2022-10-09T23:18:52.060Z,20.7
2022-10-09T23:21:09.382Z,20.7
2022-10-09T23:23:26.524Z,20.4
2022-10-09T23:25:42.789Z,20.4
2022-10-09T23:27:59.760Z,21.1
2022-10-09T23:30:17.272Z,20.6
2022-10-09T23:32:34.144Z,20.6
2022-10-09T23:34:51.547Z,20.6
2022-10-09T23:37:08.500Z,20.6
2022-10-09T23:39:25.830Z,20.9
2022-10-09T23:41:42.875Z,20.6
2022-10-09T23:43:59.882Z,20.6
2022-10-09T23:46:17.251Z,20.7
2022-10-09T23:48:34.204Z,20.4
2022-10-09T23:50:51.440Z,20.6
2022-10-09T23:53:08.613Z,20.8
2022-10-09T23:55:24.777Z,20.6
2022-10-09T23:57:40.915Z,20.9
